TimeSAST,TemperatureF,Dew PointF,Humidity,Sea Level PressureIn,VisibilityMPH,Wind Direction,Wind SpeedMPH,Gust SpeedMPH,PrecipitationIn,Events,Conditions,WindDirDegrees,DateUTC
12:00 AM,51.8,46.4,82,30.18,6.2,NW,3.5,-,N/A,,Overcast,310,2012-10-10 22:00:00
1:00 AM,51.8,46.4,82,30.18,6.2,WNW,3.5,-,N/A,,Mostly Cloudy,300,2012-10-10 23:00:00
2:00 AM,53,48,78,30.19,19,WNW,3.5,,,,,300,2012-10-11 00:00:00
2:00 AM,53.6,48.2,82,30.18,6.2,WNW,4.6,-,N/A,,Overcast,300,2012-10-11 00:00:00
3:00 AM,53.6,48.2,82,30.15,6.2,NW,3.5,-,N/A,,Overcast,320,2012-10-11 01:00:00
4:00 AM,53.6,48.2,82,30.15,6.2,North,3.5,-,N/A,,Overcast,350,2012-10-11 02:00:00
5:00 AM,53,48,77,30.18,12,NW,3.5,,,,Mostly Cloudy,310,2012-10-11 03:00:00
5:00 AM,53.6,48.2,82,30.15,6.2,WNW,3.5,-,N/A,,Mostly Cloudy,300,2012-10-11 03:00:00
6:00 AM,53.6,46.4,77,30.18,6.2,WNW,2.3,-,N/A,,Scattered Clouds,300,2012-10-11 04:00:00
7:00 AM,53.6,48.2,82,30.18,6.2,West,1.2,-,N/A,,Partly Cloudy,270,2012-10-11 05:00:00
8:00 AM,58,48,62,30.21,12,,2.3,,,,Scattered Clouds,,2012-10-11 06:00:00
8:00 AM,57.2,48.2,72,30.21,6.2,Variable,1.2,-,N/A,,Partly Cloudy,0,2012-10-11 06:00:00
9:00 AM,59.0,44.6,59,30.18,6.2,Variable,2.3,-,N/A,,Partly Cloudy,0,2012-10-11 07:00:00
10:00 AM,62.6,46.4,55,30.18,6.2,Variable,3.5,-,N/A,,Partly Cloudy,0,2012-10-11 08:00:00
11:00 AM,60.8,46.4,59,30.21,6.2,South,10.4,-,N/A,,Partly Cloudy,170,2012-10-11 09:00:00
12:00 PM,62.6,48.2,59,30.18,6.2,South,6.9,-,N/A,,Partly Cloudy,170,2012-10-11 10:00:00
1:00 PM,62.6,48.2,59,30.18,6.2,SSE,10.4,-,N/A,,Partly Cloudy,150,2012-10-11 11:00:00
2:00 PM,64,48,46,30.17,19,SSE,10.4,,,,Scattered Clouds,160,2012-10-11 12:00:00
2:00 PM,64.4,48.2,56,30.18,6.2,SSE,10.4,-,N/A,,Partly Cloudy,160,2012-10-11 12:00:00
3:00 PM,64.4,48.2,56,30.15,6.2,South,9.2,-,N/A,,Partly Cloudy,170,2012-10-11 13:00:00
4:00 PM,62.6,46.4,55,30.18,6.2,SSE,10.4,-,N/A,,Partly Cloudy,160,2012-10-11 14:00:00
5:00 PM,61,46,47,30.19,19,South,8.1,,,,,170,2012-10-11 15:00:00
5:00 PM,60.8,46.4,59,30.18,-9999.0,SSE,8.1,-,N/A,,Clear,160,2012-10-11 15:00:00
6:00 PM,59.0,48.2,67,30.21,-9999.0,South,8.1,-,N/A,,Clear,180,2012-10-11 16:00:00
7:00 PM,57.2,48.2,72,30.21,6.2,ESE,3.5,-,N/A,,Partly Cloudy,120,2012-10-11 17:00:00
8:00 PM,55,47,68,30.26,12,Calm,Calm,,,,Scattered Clouds,,2012-10-11 18:00:00
8:00 PM,55.4,48.2,77,30.24,6.2,Variable,1.2,-,N/A,,Partly Cloudy,0,2012-10-11 18:00:00
9:00 PM,53.6,48.2,82,30.27,6.2,NNW,5.8,-,N/A,,Partly Cloudy,340,2012-10-11 19:00:00
10:00 PM,51.8,46.4,82,30.27,-9999.0,NNW,3.5,-,N/A,,Clear,340,2012-10-11 20:00:00
11:00 PM,50.0,46.4,87,30.27,-9999.0,North,3.5,-,N/A,,Clear,360,2012-10-11 21:00:00